sensor_id;sensor_type;location;lat;lon;timestamp;pressure;altitude;pressure_sealevel;temperature;humidity
19843;BME280;10082;51.038;6.992;2024-03-25T00:01:09;112171.53;;;-144.33;100.00
19843;BME280;10082;51.038;6.992;2024-03-25T00:03:36;112171.53;;;-144.33;100.00
19843;BME280;10082;51.038;6.992;2024-03-25T00:06:04;112171.53;;;-144.33;100.00
19843;BME280;10082;51.038;6.992;2024-03-25T00:08:30;112171.53;;;-144.33;100.00
19843;BME280;10082;51.038;6.992;2024-03-25T00:10:58;112171.53;;;-144.33;100.00
19843;BME280;10082;51.038;6.992;2024-03-25T00:13:24;112171.53;;;-144.33;100.00
19843;BME280;10082;51.038;6.992;2024-03-25T00:15:51;112171.53;;;-144.33;100.00
19843;BME280;10082;51.038;6.992;2024-03-25T00:18:18;112171.53;;;-144.33;100.00
19843;BME280;10082;51.038;6.992;2024-03-25T00:20:46;112171.53;;;-144.33;100.00
19843;BME280;10082;51.038;6.992;2024-03-25T00:23:12;112171.53;;;-144.33;100.00
19843;BME280;10082;51.038;6.992;2024-03-25T00:25:42;112171.53;;;-144.33;100.00
19843;BME280;10082;51.038;6.992;2024-03-25T00:28:08;112171.53;;;-144.33;100.00
19843;BME280;10082;51.038;6.992;2024-03-25T00:30:35;112171.53;;;-144.33;100.00
19843;BME280;10082;51.038;6.992;2024-03-25T00:33:01;112171.53;;;-144.33;100.00
19843;BME280;10082;51.038;6.992;2024-03-25T00:35:28;112171.53;;;-144.33;100.00
19843;BME280;10082;51.038;6.992;2024-03-25T00:37:58;112171.53;;;-144.33;100.00
19843;BME280;10082;51.038;6.992;2024-03-25T00:40:25;112171.53;;;-144.33;100.00
19843;BME280;10082;51.038;6.992;2024-03-25T00:42:51;112171.53;;;-144.33;100.00
19843;BME280;10082;51.038;6.992;2024-03-25T00:45:19;112171.53;;;-144.33;100.00
19843;BME280;10082;51.038;6.992;2024-03-25T00:47:45;112171.53;;;-144.33;100.00
19843;BME280;10082;51.038;6.992;2024-03-25T00:50:12;112171.53;;;-144.33;100.00
19843;BME280;10082;51.038;6.992;2024-03-25T00:52:38;112171.53;;;-144.33;100.00
19843;BME280;10082;51.038;6.992;2024-03-25T00:55:07;112171.53;;;-144.33;100.00
19843;BME280;10082;51.038;6.992;2024-03-25T00:57:34;112171.53;;;-144.33;100.00
19843;BME280;10082;51.038;6.992;2024-03-25T01:00:01;112171.53;;;-144.33;100.00
19843;BME280;10082;51.038;6.992;2024-03-25T01:02:27;112171.53;;;-144.33;100.00
19843;BME280;10082;51.038;6.992;2024-03-25T01:04:55;112171.53;;;-144.33;100.00
19843;BME280;10082;51.038;6.992;2024-03-25T01:07:22;112171.53;;;-144.33;100.00
19843;BME280;10082;51.038;6.992;2024-03-25T01:09:49;112171.53;;;-144.33;100.00
19843;BME280;10082;51.038;6.992;2024-03-25T01:12:17;112171.53;;;-144.33;100.00
19843;BME280;10082;51.038;6.992;2024-03-25T01:14:44;112171.53;;;-144.33;100.00
19843;BME280;10082;51.038;6.992;2024-03-25T01:17:09;112171.53;;;-144.33;100.00
19843;BME280;10082;51.038;6.992;2024-03-25T01:19:37;112171.53;;;-144.33;100.00
19843;BME280;10082;51.038;6.992;2024-03-25T01:22:03;112171.53;;;-144.33;100.00
19843;BME280;10082;51.038;6.992;2024-03-25T01:24:35;112171.53;;;-144.33;100.00
19843;BME280;10082;51.038;6.992;2024-03-25T01:27:02;112171.53;;;-144.33;100.00
19843;BME280;10082;51.038;6.992;2024-03-25T01:29:31;112171.53;;;-144.33;100.00
19843;BME280;10082;51.038;6.992;2024-03-25T01:31:57;112171.53;;;-144.33;100.00
19843;BME280;10082;51.038;6.992;2024-03-25T01:34:25;112171.53;;;-144.33;100.00
19843;BME280;10082;51.038;6.992;2024-03-25T01:36:51;112171.53;;;-144.33;100.00
19843;BME280;10082;51.038;6.992;2024-03-25T01:39:18;112171.53;;;-144.33;100.00
19843;BME280;10082;51.038;6.992;2024-03-25T01:41:44;112171.53;;;-144.33;100.00
19843;BME280;10082;51.038;6.992;2024-03-25T01:44:11;112171.53;;;-144.33;100.00
19843;BME280;10082;51.038;6.992;2024-03-25T01:46:46;112171.53;;;-144.33;100.00
19843;BME280;10082;51.038;6.992;2024-03-25T01:49:13;112171.53;;;-144.33;100.00
19843;BME280;10082;51.038;6.992;2024-03-25T01:51:42;112171.53;;;-144.33;100.00
19843;BME280;10082;51.038;6.992;2024-03-25T01:54:09;112171.53;;;-144.33;100.00
19843;BME280;10082;51.038;6.992;2024-03-25T01:56:36;112171.53;;;-144.33;100.00
19843;BME280;10082;51.038;6.992;2024-03-25T01:59:04;112171.53;;;-144.33;100.00
19843;BME280;10082;51.038;6.992;2024-03-25T02:01:30;112171.53;;;-144.33;100.00
19843;BME280;10082;51.038;6.992;2024-03-25T02:03:59;112171.53;;;-144.33;100.00
19843;BME280;10082;51.038;6.992;2024-03-25T02:06:27;112171.53;;;-144.33;100.00
19843;BME280;10082;51.038;6.992;2024-03-25T02:08:56;112171.53;;;-144.33;100.00
19843;BME280;10082;51.038;6.992;2024-03-25T02:11:23;112171.53;;;-144.33;100.00
19843;BME280;10082;51.038;6.992;2024-03-25T02:13:50;112171.53;;;-144.33;100.00
19843;BME280;10082;51.038;6.992;2024-03-25T02:16:17;112171.53;;;-144.33;100.00
19843;BME280;10082;51.038;6.992;2024-03-25T02:18:44;112171.53;;;-144.33;100.00
19843;BME280;10082;51.038;6.992;2024-03-25T02:21:14;112171.53;;;-144.33;100.00
19843;BME280;10082;51.038;6.992;2024-03-25T02:23:42;112171.53;;;-144.33;100.00
19843;BME280;10082;51.038;6.992;2024-03-25T02:26:12;112171.53;;;-144.33;100.00
19843;BME280;10082;51.038;6.992;2024-03-25T02:28:39;112171.53;;;-144.33;100.00
19843;BME280;10082;51.038;6.992;2024-03-25T02:31:08;112171.53;;;-144.33;100.00
19843;BME280;10082;51.038;6.992;2024-03-25T02:33:35;112171.53;;;-144.33;100.00
19843;BME280;10082;51.038;6.992;2024-03-25T02:36:01;112171.53;;;-144.33;100.00
19843;BME280;10082;51.038;6.992;2024-03-25T02:38:28;112171.53;;;-144.33;100.00
19843;BME280;10082;51.038;6.992;2024-03-25T02:40:54;112171.53;;;-144.33;100.00
19843;BME280;10082;51.038;6.992;2024-03-25T02:43:24;112171.53;;;-144.33;100.00
19843;BME280;10082;51.038;6.992;2024-03-25T02:45:50;112171.53;;;-144.33;100.00
19843;BME280;10082;51.038;6.992;2024-03-25T02:48:17;112171.53;;;-144.33;100.00
19843;BME280;10082;51.038;6.992;2024-03-25T02:50:43;112171.53;;;-144.33;100.00
19843;BME280;10082;51.038;6.992;2024-03-25T02:53:12;112171.53;;;-144.33;100.00
19843;BME280;10082;51.038;6.992;2024-03-25T02:55:38;112171.53;;;-144.33;100.00
19843;BME280;10082;51.038;6.992;2024-03-25T02:58:05;112171.53;;;-144.33;100.00
19843;BME280;10082;51.038;6.992;2024-03-25T03:00:32;112171.53;;;-144.33;100.00
19843;BME280;10082;51.038;6.992;2024-03-25T03:03:02;112171.53;;;-144.33;100.00
19843;BME280;10082;51.038;6.992;2024-03-25T03:05:31;112171.53;;;-144.33;100.00
19843;BME280;10082;51.038;6.992;2024-03-25T03:07:58;112171.53;;;-144.33;100.00
19843;BME280;10082;51.038;6.992;2024-03-25T03:10:24;112171.53;;;-144.33;100.00
19843;BME280;10082;51.038;6.992;2024-03-25T03:12:52;112171.53;;;-144.33;100.00
19843;BME280;10082;51.038;6.992;2024-03-25T03:15:18;112171.53;;;-144.33;100.00
19843;BME280;10082;51.038;6.992;2024-03-25T03:17:46;112171.53;;;-144.33;100.00
19843;BME280;10082;51.038;6.992;2024-03-25T03:20:12;112171.53;;;-144.33;100.00
19843;BME280;10082;51.038;6.992;2024-03-25T03:22:40;112171.53;;;-144.33;100.00
19843;BME280;10082;51.038;6.992;2024-03-25T03:25:06;112171.53;;;-144.33;100.00
19843;BME280;10082;51.038;6.992;2024-03-25T03:27:33;112171.53;;;-144.33;100.00
19843;BME280;10082;51.038;6.992;2024-03-25T03:29:59;112171.53;;;-144.33;100.00
19843;BME280;10082;51.038;6.992;2024-03-25T03:32:26;112171.53;;;-144.33;100.00
19843;BME280;10082;51.038;6.992;2024-03-25T03:34:54;112171.53;;;-144.33;100.00
19843;BME280;10082;51.038;6.992;2024-03-25T03:37:22;112171.53;;;-144.33;100.00
19843;BME280;10082;51.038;6.992;2024-03-25T03:39:49;112171.53;;;-144.33;100.00
19843;BME280;10082;51.038;6.992;2024-03-25T03:42:16;112171.53;;;-144.33;100.00
19843;BME280;10082;51.038;6.992;2024-03-25T03:44:41;112171.53;;;-144.33;100.00
19843;BME280;10082;51.038;6.992;2024-03-25T03:47:14;112171.53;;;-144.33;100.00
19843;BME280;10082;51.038;6.992;2024-03-25T03:49:41;112171.53;;;-144.33;100.00
19843;BME280;10082;51.038;6.992;2024-03-25T03:52:10;112171.53;;;-144.33;100.00
19843;BME280;10082;51.038;6.992;2024-03-25T03:54:40;112171.53;;;-144.33;100.00
19843;BME280;10082;51.038;6.992;2024-03-25T03:57:07;112171.53;;;-144.33;100.00
19843;BME280;10082;51.038;6.992;2024-03-25T03:59:33;112171.53;;;-144.33;100.00
19843;BME280;10082;51.038;6.992;2024-03-25T04:02:00;112171.53;;;-144.33;100.00
19843;BME280;10082;51.038;6.992;2024-03-25T04:04:29;112171.53;;;-144.33;100.00
19843;BME280;10082;51.038;6.992;2024-03-25T04:06:56;112171.53;;;-144.33;100.00
19843;BME280;10082;51.038;6.992;2024-03-25T04:09:24;112171.53;;;-144.33;100.00
19843;BME280;10082;51.038;6.992;2024-03-25T04:11:56;112171.53;;;-144.33;100.00
19843;BME280;10082;51.038;6.992;2024-03-25T04:14:23;112171.53;;;-144.33;100.00
19843;BME280;10082;51.038;6.992;2024-03-25T04:16:53;112171.53;;;-144.33;100.00
19843;BME280;10082;51.038;6.992;2024-03-25T04:19:24;112171.53;;;-144.33;100.00
19843;BME280;10082;51.038;6.992;2024-03-25T04:21:53;112171.53;;;-144.33;100.00
19843;BME280;10082;51.038;6.992;2024-03-25T04:24:22;112171.53;;;-144.33;100.00
19843;BME280;10082;51.038;6.992;2024-03-25T04:26:52;112171.53;;;-144.33;100.00
19843;BME280;10082;51.038;6.992;2024-03-25T04:29:18;112171.53;;;-144.33;100.00
19843;BME280;10082;51.038;6.992;2024-03-25T04:31:47;112171.53;;;-144.33;100.00
19843;BME280;10082;51.038;6.992;2024-03-25T04:34:13;112171.53;;;-144.33;100.00
19843;BME280;10082;51.038;6.992;2024-03-25T04:36:41;112171.53;;;-144.33;100.00
19843;BME280;10082;51.038;6.992;2024-03-25T04:39:10;112171.53;;;-144.33;100.00
19843;BME280;10082;51.038;6.992;2024-03-25T04:41:42;112171.53;;;-144.33;100.00
19843;BME280;10082;51.038;6.992;2024-03-25T04:44:09;112171.53;;;-144.33;100.00
19843;BME280;10082;51.038;6.992;2024-03-25T04:46:37;112171.53;;;-144.33;100.00
19843;BME280;10082;51.038;6.992;2024-03-25T04:49:03;112171.53;;;-144.33;100.00
19843;BME280;10082;51.038;6.992;2024-03-25T04:51:30;112171.53;;;-144.33;100.00
19843;BME280;10082;51.038;6.992;2024-03-25T04:53:56;112171.53;;;-144.33;100.00
19843;BME280;10082;51.038;6.992;2024-03-25T04:56:22;112171.53;;;-144.33;100.00
19843;BME280;10082;51.038;6.992;2024-03-25T04:58:48;112171.53;;;-144.33;100.00
19843;BME280;10082;51.038;6.992;2024-03-25T05:01:15;112171.53;;;-144.33;100.00
19843;BME280;10082;51.038;6.992;2024-03-25T05:03:41;112171.53;;;-144.33;100.00
19843;BME280;10082;51.038;6.992;2024-03-25T05:06:10;112171.53;;;-144.33;100.00
19843;BME280;10082;51.038;6.992;2024-03-25T05:08:36;112171.53;;;-144.33;100.00
19843;BME280;10082;51.038;6.992;2024-03-25T05:11:05;112171.53;;;-144.33;100.00
19843;BME280;10082;51.038;6.992;2024-03-25T05:13:31;112171.53;;;-144.33;100.00
19843;BME280;10082;51.038;6.992;2024-03-25T05:16:00;112171.53;;;-144.33;100.00
19843;BME280;10082;51.038;6.992;2024-03-25T05:18:28;112171.53;;;-144.33;100.00
19843;BME280;10082;51.038;6.992;2024-03-25T05:20:54;112171.53;;;-144.33;100.00
19843;BME280;10082;51.038;6.992;2024-03-25T05:23:21;112171.53;;;-144.33;100.00
19843;BME280;10082;51.038;6.992;2024-03-25T05:25:47;112171.53;;;-144.33;100.00
19843;BME280;10082;51.038;6.992;2024-03-25T05:28:14;112171.53;;;-144.33;100.00
19843;BME280;10082;51.038;6.992;2024-03-25T05:30:40;112171.53;;;-144.33;100.00
19843;BME280;10082;51.038;6.992;2024-03-25T05:33:06;112171.53;;;-144.33;100.00
19843;BME280;10082;51.038;6.992;2024-03-25T05:35:34;112171.53;;;-144.33;100.00
19843;BME280;10082;51.038;6.992;2024-03-25T05:38:02;112171.53;;;-144.33;100.00
19843;BME280;10082;51.038;6.992;2024-03-25T05:40:29;112171.53;;;-144.33;100.00
19843;BME280;10082;51.038;6.992;2024-03-25T05:42:55;112171.53;;;-144.33;100.00
19843;BME280;10082;51.038;6.992;2024-03-25T05:45:22;112171.53;;;-144.33;100.00
19843;BME280;10082;51.038;6.992;2024-03-25T05:47:50;112171.53;;;-144.33;100.00
19843;BME280;10082;51.038;6.992;2024-03-25T05:50:16;112171.53;;;-144.33;100.00
19843;BME280;10082;51.038;6.992;2024-03-25T05:52:44;112171.53;;;-144.33;100.00
19843;BME280;10082;51.038;6.992;2024-03-25T05:55:10;112171.53;;;-144.33;100.00
19843;BME280;10082;51.038;6.992;2024-03-25T05:57:36;112171.53;;;-144.33;100.00
19843;BME280;10082;51.038;6.992;2024-03-25T06:00:06;112171.53;;;-144.33;100.00
19843;BME280;10082;51.038;6.992;2024-03-25T06:02:38;112171.53;;;-144.33;100.00
19843;BME280;10082;51.038;6.992;2024-03-25T06:05:05;112171.53;;;-144.33;100.00
19843;BME280;10082;51.038;6.992;2024-03-25T06:07:31;112171.53;;;-144.33;100.00
19843;BME280;10082;51.038;6.992;2024-03-25T06:09:59;112171.53;;;-144.33;100.00
19843;BME280;10082;51.038;6.992;2024-03-25T06:12:25;112171.53;;;-144.33;100.00
19843;BME280;10082;51.038;6.992;2024-03-25T06:14:54;112171.53;;;-144.33;100.00
19843;BME280;10082;51.038;6.992;2024-03-25T06:17:20;112171.53;;;-144.33;100.00
19843;BME280;10082;51.038;6.992;2024-03-25T06:19:46;112171.53;;;-144.33;100.00
19843;BME280;10082;51.038;6.992;2024-03-25T06:22:18;112171.53;;;-144.33;100.00
19843;BME280;10082;51.038;6.992;2024-03-25T06:24:47;112171.53;;;-144.33;100.00
19843;BME280;10082;51.038;6.992;2024-03-25T06:27:15;112171.53;;;-144.33;100.00
19843;BME280;10082;51.038;6.992;2024-03-25T06:29:41;112171.53;;;-144.33;100.00
19843;BME280;10082;51.038;6.992;2024-03-25T06:32:07;112171.53;;;-144.33;100.00
19843;BME280;10082;51.038;6.992;2024-03-25T06:34:52;112171.53;;;-144.33;100.00
19843;BME280;10082;51.038;6.992;2024-03-25T06:37:18;112171.53;;;-144.33;100.00
19843;BME280;10082;51.038;6.992;2024-03-25T06:39:44;112171.53;;;-144.33;100.00
19843;BME280;10082;51.038;6.992;2024-03-25T06:42:10;112171.53;;;-144.33;100.00
19843;BME280;10082;51.038;6.992;2024-03-25T06:44:41;112171.53;;;-144.33;100.00
19843;BME280;10082;51.038;6.992;2024-03-25T06:47:08;112171.53;;;-144.33;100.00
19843;BME280;10082;51.038;6.992;2024-03-25T06:49:34;112171.53;;;-144.33;100.00
19843;BME280;10082;51.038;6.992;2024-03-25T06:52:00;112171.53;;;-144.33;100.00
19843;BME280;10082;51.038;6.992;2024-03-25T06:54:33;112171.53;;;-144.33;100.00
19843;BME280;10082;51.038;6.992;2024-03-25T06:56:59;112171.53;;;-144.33;100.00
19843;BME280;10082;51.038;6.992;2024-03-25T06:59:25;112171.53;;;-144.33;100.00
19843;BME280;10082;51.038;6.992;2024-03-25T07:01:53;112171.53;;;-144.33;100.00
19843;BME280;10082;51.038;6.992;2024-03-25T07:04:19;112171.53;;;-144.33;100.00
19843;BME280;10082;51.038;6.992;2024-03-25T07:06:45;112171.53;;;-144.33;100.00
19843;BME280;10082;51.038;6.992;2024-03-25T07:09:11;112171.53;;;-144.33;100.00
19843;BME280;10082;51.038;6.992;2024-03-25T07:11:37;112171.53;;;-144.33;100.00
19843;BME280;10082;51.038;6.992;2024-03-25T07:14:07;112171.53;;;-144.33;100.00
19843;BME280;10082;51.038;6.992;2024-03-25T07:16:33;112171.53;;;-144.33;100.00
19843;BME280;10082;51.038;6.992;2024-03-25T07:19:01;112171.53;;;-144.33;100.00
19843;BME280;10082;51.038;6.992;2024-03-25T07:21:27;112171.53;;;-144.33;100.00
19843;BME280;10082;51.038;6.992;2024-03-25T07:23:53;112171.53;;;-144.33;100.00
19843;BME280;10082;51.038;6.992;2024-03-25T07:26:19;112171.53;;;-144.33;100.00
19843;BME280;10082;51.038;6.992;2024-03-25T07:28:46;112171.53;;;-144.33;100.00
19843;BME280;10082;51.038;6.992;2024-03-25T07:31:12;112171.53;;;-144.33;100.00
19843;BME280;10082;51.038;6.992;2024-03-25T07:33:38;112171.53;;;-144.33;100.00
19843;BME280;10082;51.038;6.992;2024-03-25T07:36:15;112171.53;;;-144.33;100.00
19843;BME280;10082;51.038;6.992;2024-03-25T07:38:41;112171.53;;;-144.33;100.00
19843;BME280;10082;51.038;6.992;2024-03-25T07:41:07;112171.53;;;-144.33;100.00
19843;BME280;10082;51.038;6.992;2024-03-25T07:43:33;112171.53;;;-144.33;100.00
19843;BME280;10082;51.038;6.992;2024-03-25T07:45:59;112171.53;;;-144.33;100.00
19843;BME280;10082;51.038;6.992;2024-03-25T07:48:26;112171.53;;;-144.33;100.00
19843;BME280;10082;51.038;6.992;2024-03-25T07:50:52;112171.53;;;-144.33;100.00
19843;BME280;10082;51.038;6.992;2024-03-25T07:53:20;112171.53;;;-144.33;100.00
19843;BME280;10082;51.038;6.992;2024-03-25T07:55:46;112171.53;;;-144.33;100.00
19843;BME280;10082;51.038;6.992;2024-03-25T07:58:12;112171.53;;;-144.33;100.00
19843;BME280;10082;51.038;6.992;2024-03-25T08:00:38;112171.53;;;-144.33;100.00
19843;BME280;10082;51.038;6.992;2024-03-25T08:03:04;112171.53;;;-144.33;100.00
19843;BME280;10082;51.038;6.992;2024-03-25T08:05:31;112171.53;;;-144.33;100.00
19843;BME280;10082;51.038;6.992;2024-03-25T08:07:57;112171.53;;;-144.33;100.00
19843;BME280;10082;51.038;6.992;2024-03-25T08:10:24;112171.53;;;-144.33;100.00
19843;BME280;10082;51.038;6.992;2024-03-25T08:12:50;112171.53;;;-144.33;100.00
19843;BME280;10082;51.038;6.992;2024-03-25T08:15:16;112171.53;;;-144.33;100.00
19843;BME280;10082;51.038;6.992;2024-03-25T08:17:42;112171.53;;;-144.33;100.00
19843;BME280;10082;51.038;6.992;2024-03-25T08:20:15;112171.53;;;-144.33;100.00
19843;BME280;10082;51.038;6.992;2024-03-25T08:22:41;112171.53;;;-144.33;100.00
19843;BME280;10082;51.038;6.992;2024-03-25T08:25:08;112171.53;;;-144.33;100.00
19843;BME280;10082;51.038;6.992;2024-03-25T08:27:36;112171.53;;;-144.33;100.00
19843;BME280;10082;51.038;6.992;2024-03-25T08:30:02;112171.53;;;-144.33;100.00
19843;BME280;10082;51.038;6.992;2024-03-25T08:32:28;112171.53;;;-144.33;100.00
19843;BME280;10082;51.038;6.992;2024-03-25T08:34:58;112171.53;;;-144.33;100.00
19843;BME280;10082;51.038;6.992;2024-03-25T08:37:24;112171.53;;;-144.33;100.00
19843;BME280;10082;51.038;6.992;2024-03-25T08:39:51;112171.53;;;-144.33;100.00
19843;BME280;10082;51.038;6.992;2024-03-25T08:42:21;112171.53;;;-144.33;100.00
19843;BME280;10082;51.038;6.992;2024-03-25T08:44:49;112171.53;;;-144.33;100.00
19843;BME280;10082;51.038;6.992;2024-03-25T08:47:16;112171.53;;;-144.33;100.00
19843;BME280;10082;51.038;6.992;2024-03-25T08:49:42;112171.53;;;-144.33;100.00
19843;BME280;10082;51.038;6.992;2024-03-25T08:52:08;112171.53;;;-144.33;100.00
19843;BME280;10082;51.038;6.992;2024-03-25T08:54:37;112171.53;;;-144.33;100.00
19843;BME280;10082;51.038;6.992;2024-03-25T08:57:03;112171.53;;;-144.33;100.00
19843;BME280;10082;51.038;6.992;2024-03-25T08:59:29;112171.53;;;-144.33;100.00
19843;BME280;10082;51.038;6.992;2024-03-25T09:01:57;112171.53;;;-144.33;100.00
19843;BME280;10082;51.038;6.992;2024-03-25T09:04:24;112171.53;;;-144.33;100.00
19843;BME280;10082;51.038;6.992;2024-03-25T09:06:50;112171.53;;;-144.33;100.00
19843;BME280;10082;51.038;6.992;2024-03-25T09:09:16;112171.53;;;-144.33;100.00
19843;BME280;10082;51.038;6.992;2024-03-25T09:12:01;112171.53;;;-144.33;100.00
19843;BME280;10082;51.038;6.992;2024-03-25T09:14:30;112171.53;;;-144.33;100.00
19843;BME280;10082;51.038;6.992;2024-03-25T09:17:00;112171.53;;;-144.33;100.00
19843;BME280;10082;51.038;6.992;2024-03-25T09:19:26;112171.53;;;-144.33;100.00
19843;BME280;10082;51.038;6.992;2024-03-25T09:21:53;112171.53;;;-144.33;100.00
19843;BME280;10082;51.038;6.992;2024-03-25T09:24:19;112171.53;;;-144.33;100.00
19843;BME280;10082;51.038;6.992;2024-03-25T09:26:45;112171.53;;;-144.33;100.00
19843;BME280;10082;51.038;6.992;2024-03-25T09:29:11;112171.53;;;-144.33;100.00
19843;BME280;10082;51.038;6.992;2024-03-25T09:31:38;112171.53;;;-144.33;100.00
19843;BME280;10082;51.038;6.992;2024-03-25T09:34:09;112171.53;;;-144.33;100.00
19843;BME280;10082;51.038;6.992;2024-03-25T09:36:35;112171.53;;;-144.33;100.00
19843;BME280;10082;51.038;6.992;2024-03-25T09:39:02;112171.53;;;-144.33;100.00
19843;BME280;10082;51.038;6.992;2024-03-25T09:41:28;112171.53;;;-144.33;100.00
19843;BME280;10082;51.038;6.992;2024-03-25T09:43:56;112171.53;;;-144.33;100.00
19843;BME280;10082;51.038;6.992;2024-03-25T09:46:26;112171.53;;;-144.33;100.00
19843;BME280;10082;51.038;6.992;2024-03-25T09:48:53;112171.53;;;-144.33;100.00
19843;BME280;10082;51.038;6.992;2024-03-25T09:51:21;112171.53;;;-144.33;100.00
19843;BME280;10082;51.038;6.992;2024-03-25T09:53:50;112171.53;;;-144.33;100.00
19843;BME280;10082;51.038;6.992;2024-03-25T09:56:16;112171.53;;;-144.33;100.00
19843;BME280;10082;51.038;6.992;2024-03-25T09:58:44;112171.53;;;-144.33;100.00
19843;BME280;10082;51.038;6.992;2024-03-25T10:01:10;112171.53;;;-144.33;100.00
19843;BME280;10082;51.038;6.992;2024-03-25T10:03:36;112171.53;;;-144.33;100.00
19843;BME280;10082;51.038;6.992;2024-03-25T10:06:04;112171.53;;;-144.33;100.00
19843;BME280;10082;51.038;6.992;2024-03-25T10:08:34;112171.53;;;-144.33;100.00
19843;BME280;10082;51.038;6.992;2024-03-25T10:11:00;112171.53;;;-144.33;100.00
19843;BME280;10082;51.038;6.992;2024-03-25T10:13:27;112171.53;;;-144.33;100.00
19843;BME280;10082;51.038;6.992;2024-03-25T10:15:55;112171.53;;;-144.33;100.00
19843;BME280;10082;51.038;6.992;2024-03-25T10:18:21;112171.53;;;-144.33;100.00
19843;BME280;10082;51.038;6.992;2024-03-25T10:20:49;112171.53;;;-144.33;100.00
19843;BME280;10082;51.038;6.992;2024-03-25T10:23:15;112171.53;;;-144.33;100.00
19843;BME280;10082;51.038;6.992;2024-03-25T10:25:43;112171.53;;;-144.33;100.00
19843;BME280;10082;51.038;6.992;2024-03-25T10:28:13;112171.53;;;-144.33;100.00
19843;BME280;10082;51.038;6.992;2024-03-25T10:30:42;112171.53;;;-144.33;99.82
19843;BME280;10082;51.038;6.992;2024-03-25T10:33:11;112171.53;;;-144.33;93.52
19843;BME280;10082;51.038;6.992;2024-03-25T10:35:39;112171.53;;;-144.33;93.40
19843;BME280;10082;51.038;6.992;2024-03-25T10:38:10;112171.53;;;-144.33;91.01
19843;BME280;10082;51.038;6.992;2024-03-25T10:40:37;112171.53;;;-144.33;88.40
19843;BME280;10082;51.038;6.992;2024-03-25T10:43:07;112171.53;;;-144.33;85.40
19843;BME280;10082;51.038;6.992;2024-03-25T10:45:38;112171.53;;;-144.33;80.43
19843;BME280;10082;51.038;6.992;2024-03-25T10:48:12;112171.53;;;-144.33;75.47
19843;BME280;10082;51.038;6.992;2024-03-25T10:50:39;112171.53;;;-144.33;72.34
19843;BME280;10082;51.038;6.992;2024-03-25T10:53:08;112171.53;;;-144.33;72.14
19843;BME280;10082;51.038;6.992;2024-03-25T10:55:36;112171.53;;;-144.33;73.14
19843;BME280;10082;51.038;6.992;2024-03-25T10:58:06;112171.53;;;-144.33;76.88
19843;BME280;10082;51.038;6.992;2024-03-25T11:00:34;112171.53;;;-144.33;80.16
19843;BME280;10082;51.038;6.992;2024-03-25T11:03:00;112171.53;;;-144.33;80.51
19843;BME280;10082;51.038;6.992;2024-03-25T11:05:29;112171.53;;;-144.33;81.18
19843;BME280;10082;51.038;6.992;2024-03-25T11:07:56;112171.53;;;-144.33;79.63
19843;BME280;10082;51.038;6.992;2024-03-25T11:10:29;112171.53;;;-144.33;79.07
19843;BME280;10082;51.038;6.992;2024-03-25T11:12:55;112171.53;;;-144.33;79.45
19843;BME280;10082;51.038;6.992;2024-03-25T11:15:23;112171.53;;;-144.33;80.41
19843;BME280;10082;51.038;6.992;2024-03-25T11:17:49;112171.53;;;-144.33;79.59
19843;BME280;10082;51.038;6.992;2024-03-25T11:20:20;112171.53;;;-144.33;79.21
19843;BME280;10082;51.038;6.992;2024-03-25T11:22:53;112171.53;;;-144.33;80.17
19843;BME280;10082;51.038;6.992;2024-03-25T11:25:20;112171.53;;;-144.33;78.89
19843;BME280;10082;51.038;6.992;2024-03-25T11:27:47;112171.53;;;-144.33;77.59
19843;BME280;10082;51.038;6.992;2024-03-25T11:30:14;112171.53;;;-144.33;78.24
19843;BME280;10082;51.038;6.992;2024-03-25T11:32:46;112171.53;;;-144.33;78.91
19843;BME280;10082;51.038;6.992;2024-03-25T11:35:14;112171.53;;;-144.33;78.61
19843;BME280;10082;51.038;6.992;2024-03-25T11:37:41;112171.53;;;-144.33;77.18
19843;BME280;10082;51.038;6.992;2024-03-25T11:40:08;112171.53;;;-144.33;75.14
19843;BME280;10082;51.038;6.992;2024-03-25T11:42:39;112171.53;;;-144.33;76.33
19843;BME280;10082;51.038;6.992;2024-03-25T11:45:07;112171.53;;;-144.33;76.95
19843;BME280;10082;51.038;6.992;2024-03-25T11:47:33;112171.53;;;-144.33;77.06
19843;BME280;10082;51.038;6.992;2024-03-25T11:50:07;112171.53;;;-144.33;75.17
19843;BME280;10082;51.038;6.992;2024-03-25T11:52:36;112171.53;;;-144.33;74.94
19843;BME280;10082;51.038;6.992;2024-03-25T11:55:03;112171.53;;;-144.33;75.58
19843;BME280;10082;51.038;6.992;2024-03-25T11:57:30;112171.53;;;-144.33;74.76
19843;BME280;10082;51.038;6.992;2024-03-25T11:59:57;112171.53;;;-144.33;75.54
19843;BME280;10082;51.038;6.992;2024-03-25T12:02:25;112171.53;;;-144.33;73.58
19843;BME280;10082;51.038;6.992;2024-03-25T12:04:51;112171.53;;;-144.33;72.04
19843;BME280;10082;51.038;6.992;2024-03-25T12:07:22;112171.53;;;-144.33;72.04
19843;BME280;10082;51.038;6.992;2024-03-25T12:09:49;112171.53;;;-144.33;70.70
19843;BME280;10082;51.038;6.992;2024-03-25T12:12:42;112171.53;;;-144.33;70.98
19843;BME280;10082;51.038;6.992;2024-03-25T12:15:16;112171.53;;;-144.33;69.91
19843;BME280;10082;51.038;6.992;2024-03-25T12:17:51;112171.53;;;-144.33;70.73
19843;BME280;10082;51.038;6.992;2024-03-25T12:20:19;112171.53;;;-144.33;70.24
19843;BME280;10082;51.038;6.992;2024-03-25T12:22:55;112171.53;;;-144.33;69.87
19843;BME280;10082;51.038;6.992;2024-03-25T12:25:31;112171.53;;;-144.33;70.87